South Newton, Pennsylvania
Current Conditions -  °F | °C
As of 9:53 AM on Tuesday 21 Oct 2014 (Local Time) from KRYT Reporting Station
Clear Clear  
Wind Chill: 53°   Ceiling: Unl
Heat Index: 53°   Visibility: 10mi
Dew Point: 48°   Wind: 0mph
Humidity: 83%   Direction: NA
Pressure: 29.86"   Gusts: NA
Location:  40.0726°N, 77.4006°W
Report Text: KRYT 211353Z AUTO 00000KT 10SM CLR 12/09 A2986 RMK AO2 SLP113 T01170089 $
Loading
Personal Weather Stations






























Interactive Weather Map
Tropical Storm Tracking
New forecast layout! Learn more

10-Day Weather Forecast

Advertisements
Track Severe Weather on mobile